地図

経路データ

SID SEASON NUMBER BASIN SUBBASIN NAME ISO_TIME NATURE LAT LON WMO_WIND WMO_PRES WMO_AGENCY TRACK_TYPE DIST2LAND LANDFALL IFLAG USA_AGENCY USA_ATCF_ID USA_LAT USA_LON USA_RECORD USA_STATUS USA_WIND USA_PRES USA_SSHS USA_R34_NE USA_R34_SE USA_R34_SW USA_R34_NW USA_R50_NE USA_R50_SE USA_R50_SW USA_R50_NW USA_R64_NE USA_R64_SE USA_R64_SW USA_R64_NW USA_POCI USA_ROCI USA_RMW USA_EYE TOKYO_LAT TOKYO_LON TOKYO_GRADE TOKYO_WIND TOKYO_PRES TOKYO_R50_DIR TOKYO_R50_LONG TOKYO_R50_SHORT TOKYO_R30_DIR TOKYO_R30_LONG TOKYO_R30_SHORT TOKYO_LAND CMA_LAT CMA_LON CMA_CAT CMA_WIND CMA_PRES HKO_LAT HKO_LON HKO_CAT HKO_WIND HKO_PRES NEWDELHI_LAT NEWDELHI_LON NEWDELHI_GRADE NEWDELHI_WIND NEWDELHI_PRES NEWDELHI_CI NEWDELHI_DP NEWDELHI_POCI REUNION_LAT REUNION_LON REUNION_TYPE REUNION_WIND REUNION_PRES REUNION_TNUM REUNION_CI REUNION_RMW REUNION_R34_NE REUNION_R34_SE REUNION_R34_SW REUNION_R34_NW REUNION_R50_NE REUNION_R50_SE REUNION_R50_SW REUNION_R50_NW REUNION_R64_NE REUNION_R64_SE REUNION_R64_SW REUNION_R64_NW BOM_LAT BOM_LON BOM_TYPE BOM_WIND BOM_PRES BOM_TNUM BOM_CI BOM_RMW BOM_R34_NE BOM_R34_SE BOM_R34_SW BOM_R34_NW BOM_R50_NE BOM_R50_SE BOM_R50_SW BOM_R50_NW BOM_R64_NE BOM_R64_SE BOM_R64_SW BOM_R64_NW BOM_ROCI BOM_POCI BOM_EYE BOM_POS_METHOD BOM_PRES_METHOD NADI_LAT NADI_LON NADI_CAT NADI_WIND NADI_PRES WELLINGTON_LAT WELLINGTON_LON WELLINGTON_WIND WELLINGTON_PRES DS824_LAT DS824_LON DS824_STAGE DS824_WIND DS824_PRES TD9636_LAT TD9636_LON TD9636_STAGE TD9636_WIND TD9636_PRES TD9635_LAT TD9635_LON TD9635_WIND TD9635_PRES TD9635_ROCI NEUMANN_LAT NEUMANN_LON NEUMANN_CLASS NEUMANN_WIND NEUMANN_PRES MLC_LAT MLC_LON MLC_CLASS MLC_WIND MLC_PRES USA_GUST BOM_GUST BOM_GUST_PER REUNION_GUST REUNION_GUST_PER USA_SEAHGT USA_SEARAD_NE USA_SEARAD_SE USA_SEARAD_SW USA_SEARAD_NW STORM_SPEED STORM_DIR
1996238N27155 1996 72 WP MM NOT_NAMED 1996-08-24 12:00:00 NR 27.0000 155.100 main 1656 1656 O_____________ jtwc_wp WP211996 27.0000 155.100 20 -1 15 64
1996238N27155 1996 72 WP MM NOT_NAMED 1996-08-24 15:00:00 NR 27.3260 155.864 main 1697 1691 P_____________ WP211996 27.3260 155.864 20 -1 15 66
1996238N27155 1996 72 WP MM NOT_NAMED 1996-08-24 18:00:00 NR 27.6000 156.600 main 1733 1733 O_____________ jtwc_wp WP211996 27.6000 156.600 20 -1 14 70
1996238N27155 1996 72 WP MM NOT_NAMED 1996-08-24 21:00:00 NR 27.7993 157.294 main 1777 1777 P_____________ WP211996 27.7993 157.294 20 -1 13 72
1996238N27155 1996 72 WP MM NOT_NAMED 1996-08-25 00:00:00 NR 28.0000 158.000 main 1823 1823 O_____________ jtwc_wp WP211996 28.0000 158.000 20 -1 14 71
1996238N27155 1996 72 WP MM NOT_NAMED 1996-08-25 03:00:00 NR 28.2550 158.801 main 1872 1872 P_____________ WP211996 28.2550 158.801 20 -1 15 67
1996238N27155 1996 72 WP MM NOT_NAMED 1996-08-25 06:00:00 NR 28.6000 159.600 main 1923 1923 O_____________ jtwc_wp WP211996 28.6000 159.600 20 -1 16 60
1996238N27155 1996 72 WP MM NOT_NAMED 1996-08-25 09:00:00 NR 29.0550 160.360 main 1965 1965 P_____________ WP211996 29.0550 160.360 22 -1 16 51
1996238N27155 1996 72 WP MM NOT_NAMED 1996-08-25 12:00:00 NR 29.6000 161.000 main 1993 1993 O_____________ jtwc_wp WP211996 29.6000 161.000 25 -1 15 40
1996238N27155 1996 72 WP MM NOT_NAMED 1996-08-25 15:00:00 NR 30.2297 161.505 main 1996 1951 P_____________ WP211996 30.2297 161.505 25 -1 14 30
1996238N27155 1996 72 WP MM NOT_NAMED 1996-08-25 18:00:00 NR 30.8000 161.800 main 1951 1917 O_____________ jtwc_wp WP211996 30.8000 161.800 25 -1 10 19
1996238N27155 1996 72 WP MM NOT_NAMED 1996-08-25 21:00:00 NR 31.1673 161.876 main 1917 1893 P_____________ WP211996 31.1673 161.876 25 -1 6 1
1996238N27155 1996 72 WP MM NOT_NAMED 1996-08-26 00:00:00 NR 31.4000 161.800 main 1893 1869 O_____________ jtwc_wp WP211996 31.4000 161.800 25 -1 4 343
1996238N27155 1996 72 WP MM NOT_NAMED 1996-08-26 03:00:00 NR 31.5650 161.730 main 1869 1854 P_____________ WP211996 31.5650 161.730 25 -1 3 330
1996238N27155 1996 72 WP MM NOT_NAMED 1996-08-26 06:00:00 NR 31.7000 161.600 main 1854 1825 O_____________ jtwc_wp WP211996 31.7000 161.600 25 -1 4 324
1996238N27155 1996 72 WP MM NOT_NAMED 1996-08-26 09:00:00 NR 31.9224 161.430 main 1825 1797 P_____________ WP211996 31.9224 161.430 25 -1 5 320
1996238N27155 1996 72 WP MM NOT_NAMED 1996-08-26 12:00:00 NR 32.1000 161.200 main 1797 1783 O_____________ jtwc_wp WP211996 32.1000 161.200 25 -1 5 295
1996238N27155 1996 72 WP MM NOT_NAMED 1996-08-26 15:00:00 NR 32.1225 160.922 main 1783 1769 P_____________ WP211996 32.1225 160.922 25 -1 5 270
1996238N27155 1996 72 WP MM NOT_NAMED 1996-08-26 18:00:00 NR 32.1000 160.600 main 1769 1756 O_____________ jtwc_wp WP211996 32.1000 160.600 25 -1 6 271
1996238N27155 1996 72 WP MM NOT_NAMED 1996-08-26 21:00:00 NR 32.1274 160.265 main 1756 1728 P_____________ WP211996 32.1274 160.265 25 -1 6 280
1996238N27155 1996 72 WP MM NOT_NAMED 1996-08-27 00:00:00 NR 32.2000 159.900 main 1728 1701 O_____________ jtwc_wp WP211996 32.2000 159.900 25 -1 7 287
1996238N27155 1996 72 WP MM NOT_NAMED 1996-08-27 03:00:00 NR 32.3274 159.507 main 1701 1665 P_____________ WP211996 32.3274 159.507 25 -1 7 294
1996238N27155 1996 72 WP MM NOT_NAMED 1996-08-27 06:00:00 NR 32.5000 159.100 main 1665 1638 O_____________ jtwc_wp WP211996 32.5000 159.100 25 -1 7 295
1996238N27155 1996 72 WP MM NOT_NAMED 1996-08-27 09:00:00 NR 32.6397 158.714 main 1638 1592 P_____________ WP211996 32.6397 158.714 25 -1 8 301
1996238N27155 1996 72 WP MM NOT_NAMED 1996-08-27 12:00:00 NR 32.9000 158.300 main 1592 1532 O_____________ jtwc_wp WP211996 32.9000 158.300 25 -1 11 313
1996238N27155 1996 72 WP MM NOT_NAMED 1996-08-27 15:00:00 NR 33.3677 157.793 main 1522 1442 P_____________ WP211996 33.3677 157.793 25 -1 14 323
1996238N27155 1996 72 WP MM NOT_NAMED 1996-08-27 18:00:00 NR 34.0000 157.300 main 1442 1356 O_____________ jtwc_wp WP211996 34.0000 157.300 25 -1 15 331
1996238N27155 1996 72 WP MM NOT_NAMED 1996-08-27 21:00:00 NR 34.7125 156.876 main 1356 1264 P_____________ WP211996 34.7125 156.876 25 -1 16 339
1996238N27155 1996 72 WP MM NOT_NAMED 1996-08-28 00:00:00 NR 35.5000 156.600 main 1264 1179 O_____________ jtwc_wp WP211996 35.5000 156.600 25 -1 16 350
1996238N27155 1996 72 WP MM NOT_NAMED 1996-08-28 03:00:00 NR 36.3148 156.524 main 1179 1105 P_____________ WP211996 36.3148 156.524 25 -1 16 0
1996238N27155 1996 72 WP MM NOT_NAMED 1996-08-28 06:00:00 NR 37.1000 156.600 main 1105 1042 O_____________ jtwc_wp WP211996 37.1000 156.600 25 -1 15 5
1996238N27155 1996 72 WP MM NOT_NAMED 1996-08-28 09:00:00 NR 37.7874 156.705 main 1042 995 P_____________ WP211996 37.7874 156.705 25 -1 13 10
1996238N27155 1996 72 WP MM NOT_NAMED 1996-08-28 12:00:00 NR 38.4000 156.900 main 995 951 O_____________ jtwc_wp WP211996 38.4000 156.900 25 -1 13 16
1996238N27155 1996 72 WP MM NOT_NAMED 1996-08-28 15:00:00 NR 38.9948 157.148 main 951 928 P_____________ WP211996 38.9948 157.148 25 -1 12 23
1996238N27155 1996 72 WP MM NOT_NAMED 1996-08-28 18:00:00 NR 39.5000 157.500 main 928 915 O_____________ jtwc_wp WP211996 39.5000 157.500 25 -1 11 35
1996238N27155 1996 72 WP MM NOT_NAMED 1996-08-28 21:00:00 NR 39.9026 157.970 main 921 915 P_____________ WP211996 39.9026 157.970 25 -1 10 48
1996238N27155 1996 72 WP MM NOT_NAMED 1996-08-29 00:00:00 NR 40.2000 158.500 main 924 921 O_____________ jtwc_wp WP211996 40.2000 158.500 25 -1 9 57
1996238N27155 1996 72 WP MM NOT_NAMED 1996-08-29 03:00:00 NR 40.4148 159.001 main 937 936 P_____________ WP211996 40.4148 159.001 25 -1 9 62
1996238N27155 1996 72 WP MM NOT_NAMED 1996-08-29 06:00:00 NR 40.6000 159.500 main 953 952 O_____________ jtwc_wp WP211996 40.6000 159.500 25 -1 9 61
1996238N27155 1996 72 WP MM NOT_NAMED 1996-08-29 09:00:00 NR 40.8348 160.000 main 970 969 P_____________ WP211996 40.8348 160.000 25 -1 9 57
1996238N27155 1996 72 WP MM NOT_NAMED 1996-08-29 12:00:00 NR 41.1000 160.500 main 981 981 O_____________ jtwc_wp WP211996 41.1000 160.500 25 -1 9 53
1996238N27155 1996 72 WP MM NOT_NAMED 1996-08-29 15:00:00 NR 41.3922 160.993 main 995 995 P_____________ WP211996 41.3922 160.993 25 -1 10 51
1996238N27155 1996 72 WP MM NOT_NAMED 1996-08-29 18:00:00 NR 41.7000 161.500 main 1010 1010 O_____________ jtwc_wp WP211996 41.7000 161.500 25 -1 10 52
1996238N27155 1996 72 WP MM NOT_NAMED 1996-08-29 21:00:00 NR 42.0031 162.039 main 1022 1011 P_____________ WP211996 42.0031 162.039 25 -1 10 54
1996238N27155 1996 72 WP MM NOT_NAMED 1996-08-30 00:00:00 NR 42.3000 162.600 main 1015 O_____________ jtwc_wp WP211996 42.3000 162.600 25 -1 10 54

デジタル台風データ・検索

IBTrACS Databaseについて

本データベースは、米国NOAAが公開する1842年以降の世界の熱帯低気圧のベストトラックデータアーカイブInternational Best Track Archive for Climate Stewardship (IBTrACS)を、ウェブで閲覧しやすい形式に変換したものです。

最終更新日:2021-12-01